createdAt,value
2018-06-02T00:01:39.707Z,99.90
2018-06-02T00:04:07.362Z,99.90
2018-06-02T00:06:35.221Z,99.90
2018-06-02T00:09:03.346Z,99.90
2018-06-02T00:11:31.585Z,99.90
2018-06-02T00:13:59.077Z,99.90
2018-06-02T00:16:26.747Z,99.90
2018-06-02T00:18:54.298Z,99.90
2018-06-02T00:21:21.848Z,99.90
2018-06-02T00:23:51.110Z,99.90
2018-06-02T00:26:19.359Z,99.90
2018-06-02T00:28:46.835Z,99.90
2018-06-02T00:31:14.308Z,99.90
2018-06-02T00:33:42.538Z,99.90
2018-06-02T00:36:10.092Z,99.90
2018-06-02T00:38:37.841Z,99.90
2018-06-02T00:41:05.499Z,99.90
2018-06-02T00:43:33.370Z,99.90
2018-06-02T00:46:02.353Z,99.90
2018-06-02T00:48:31.076Z,99.90
2018-06-02T00:50:58.552Z,99.90
2018-06-02T00:53:27.156Z,99.90
2018-06-02T00:55:55.117Z,99.90
2018-06-02T00:58:23.234Z,99.90
2018-06-02T01:00:50.760Z,99.90
2018-06-02T01:03:19.198Z,99.90
2018-06-02T01:05:46.674Z,99.90
2018-06-02T01:08:14.147Z,99.90
2018-06-02T01:10:41.637Z,99.90
2018-06-02T01:13:09.103Z,99.90
2018-06-02T01:15:36.827Z,99.90
2018-06-02T01:18:04.759Z,99.90
2018-06-02T01:20:32.927Z,99.90
2018-06-02T01:23:02.359Z,99.90
2018-06-02T01:25:30.934Z,99.90
2018-06-02T01:27:58.463Z,99.90
2018-06-02T01:30:25.956Z,99.90
2018-06-02T01:32:53.610Z,99.90
2018-06-02T01:35:21.167Z,99.90
2018-06-02T01:37:48.672Z,99.90
2018-06-02T01:40:16.915Z,99.90
2018-06-02T01:42:44.400Z,99.90
2018-06-02T01:45:11.871Z,99.90
2018-06-02T01:47:39.423Z,99.90
2018-06-02T01:50:07.723Z,99.90
2018-06-02T01:52:35.509Z,99.90
2018-06-02T01:55:03.453Z,99.90
2018-06-02T01:57:31.735Z,99.90
2018-06-02T01:59:59.357Z,99.90
2018-06-02T02:02:26.860Z,99.90
2018-06-02T02:04:55.187Z,99.90
2018-06-02T02:07:22.839Z,99.90
2018-06-02T02:09:50.359Z,99.90
2018-06-02T02:12:17.839Z,99.90
2018-06-02T02:14:45.316Z,99.90
2018-06-02T02:17:12.849Z,99.90
2018-06-02T02:19:40.327Z,99.90
2018-06-02T02:22:08.837Z,99.90
2018-06-02T02:24:36.679Z,99.90
2018-06-02T02:27:04.760Z,99.90
2018-06-02T02:29:33.717Z,99.90
2018-06-02T02:32:02.053Z,99.90
2018-06-02T02:34:30.851Z,99.90
2018-06-02T02:36:59.108Z,99.90
2018-06-02T02:39:26.639Z,99.90
2018-06-02T02:41:54.344Z,99.90
2018-06-02T02:44:21.931Z,99.90
2018-06-02T02:46:50.184Z,99.90
2018-06-02T02:49:17.661Z,99.90
2018-06-02T02:51:45.143Z,99.90
2018-06-02T02:54:12.629Z,99.90
2018-06-02T02:56:40.156Z,99.90
2018-06-02T02:59:07.741Z,99.90
2018-06-02T03:01:35.545Z,99.90
2018-06-02T03:04:03.516Z,99.90
2018-06-02T03:06:31.274Z,99.90
2018-06-02T03:08:58.939Z,99.90
2018-06-02T03:11:26.425Z,99.90
2018-06-02T03:13:53.973Z,99.90
2018-06-02T03:16:22.416Z,99.90
2018-06-02T03:18:49.903Z,99.90
2018-06-02T03:21:17.384Z,99.90
2018-06-02T03:23:44.861Z,99.90
2018-06-02T03:26:13.111Z,99.90
2018-06-02T03:28:42.208Z,99.90
2018-06-02T03:31:09.692Z,99.90
2018-06-02T03:33:37.545Z,99.90
2018-06-02T03:36:05.956Z,99.90
2018-06-02T03:38:33.651Z,99.90
2018-06-02T03:41:02.044Z,99.90
2018-06-02T03:43:29.821Z,99.90
2018-06-02T03:45:57.356Z,99.90
2018-06-02T03:48:25.099Z,99.90
2018-06-02T03:50:53.395Z,99.90
2018-06-02T03:53:20.955Z,99.90
2018-06-02T03:55:48.435Z,99.90
2018-06-02T03:58:15.924Z,99.90
2018-06-02T04:00:43.391Z,99.90
2018-06-02T04:03:10.876Z,99.90
2018-06-02T04:05:38.447Z,99.90
2018-06-02T04:08:06.095Z,99.90
2018-06-02T04:10:33.896Z,99.90
2018-06-02T04:13:01.784Z,99.90
2018-06-02T04:15:29.459Z,99.90
2018-06-02T04:17:57.023Z,99.90
2018-06-02T04:20:24.580Z,99.90
2018-06-02T04:22:52.122Z,99.90
2018-06-02T04:25:19.747Z,99.90
2018-06-02T04:27:47.228Z,99.90
2018-06-02T04:30:14.707Z,99.90
2018-06-02T04:32:42.188Z,99.90
2018-06-02T04:35:09.663Z,99.90
2018-06-02T04:37:37.273Z,99.90
2018-06-02T04:40:05.064Z,99.90
2018-06-02T04:42:32.907Z,99.90
2018-06-02T04:45:00.527Z,99.90
2018-06-02T04:47:28.131Z,99.90
2018-06-02T04:49:55.608Z,99.90
2018-06-02T04:52:23.161Z,99.90
2018-06-02T04:54:50.664Z,99.90
2018-06-02T04:57:18.148Z,99.90
2018-06-02T04:59:45.623Z,99.90
2018-06-02T05:02:13.871Z,99.90
2018-06-02T05:04:41.348Z,99.90
2018-06-02T05:07:08.912Z,99.90
2018-06-02T05:09:36.520Z,99.90
2018-06-02T05:12:04.603Z,99.90
2018-06-02T05:14:32.664Z,99.90
2018-06-02T05:17:00.434Z,99.90
2018-06-02T05:19:28.740Z,99.90
2018-06-02T05:21:56.224Z,99.90
2018-06-02T05:24:23.787Z,99.90
2018-06-02T05:26:51.316Z,99.90
2018-06-02T05:29:18.824Z,99.90
2018-06-02T05:31:46.304Z,99.90
2018-06-02T05:34:13.784Z,99.90
2018-06-02T05:36:41.260Z,99.90
2018-06-02T05:39:08.903Z,99.90
2018-06-02T05:41:36.460Z,99.90
2018-06-02T05:44:04.471Z,99.90
2018-06-02T05:46:32.298Z,99.90
2018-06-02T05:49:00.428Z,99.90
2018-06-02T05:51:28.023Z,99.90
2018-06-02T05:53:55.571Z,99.90
2018-06-02T05:56:23.082Z,99.90
2018-06-02T05:58:50.571Z,99.90
2018-06-02T06:01:18.048Z,99.90
2018-06-02T06:03:45.533Z,99.90
2018-06-02T06:06:13.008Z,99.90
2018-06-02T06:08:40.492Z,99.90
2018-06-02T06:11:08.124Z,99.90
2018-06-02T06:13:35.819Z,99.90
2018-06-02T06:16:03.579Z,99.90
2018-06-02T06:18:32.590Z,99.90
2018-06-02T06:21:00.722Z,99.90
2018-06-02T06:23:28.349Z,99.90
2018-06-02T06:25:55.894Z,99.90
2018-06-02T06:28:24.197Z,99.90
2018-06-02T06:30:51.807Z,99.90
2018-06-02T06:33:19.369Z,99.90
2018-06-02T06:35:46.835Z,99.90
2018-06-02T06:38:14.319Z,99.90
2018-06-02T06:40:41.795Z,99.90
2018-06-02T06:43:09.299Z,99.90
2018-06-02T06:45:36.869Z,99.90
2018-06-02T06:48:04.878Z,99.90
2018-06-02T06:50:32.695Z,99.90
2018-06-02T06:53:00.683Z,99.90
2018-06-02T06:55:28.301Z,99.90
2018-06-02T06:57:56.547Z,99.90
2018-06-02T07:00:24.141Z,99.90
2018-06-02T07:02:52.891Z,99.90
2018-06-02T07:05:20.367Z,99.90
2018-06-02T07:07:47.853Z,99.90
2018-06-02T07:10:15.323Z,99.90
2018-06-02T07:12:42.808Z,99.90
2018-06-02T07:15:10.279Z,99.90
2018-06-02T07:17:37.886Z,99.90
2018-06-02T07:20:05.659Z,99.90
2018-06-02T07:22:33.528Z,99.90
2018-06-02T07:25:02.081Z,99.90
2018-06-02T07:27:29.582Z,99.90
2018-06-02T07:29:57.184Z,99.90
2018-06-02T07:32:25.529Z,99.90
2018-06-02T07:34:53.019Z,99.90
2018-06-02T07:37:20.504Z,99.90
2018-06-02T07:39:47.987Z,99.90
2018-06-02T07:42:15.564Z,99.90
2018-06-02T07:44:43.820Z,99.90
2018-06-02T07:47:12.064Z,99.90
2018-06-02T07:49:39.603Z,99.90
2018-06-02T07:52:07.956Z,99.90
2018-06-02T07:54:35.859Z,99.90
2018-06-02T07:57:04.464Z,99.90
2018-06-02T07:59:32.427Z,99.90
2018-06-02T08:02:00.756Z,99.90
2018-06-02T08:04:28.304Z,99.90
2018-06-02T08:06:55.780Z,99.90
2018-06-02T08:09:23.441Z,99.90
2018-06-02T08:11:51.045Z,99.90
2018-06-02T08:14:19.290Z,99.90
2018-06-02T08:16:46.771Z,99.90
2018-06-02T08:19:14.347Z,99.90
2018-06-02T08:21:41.820Z,99.90
2018-06-02T08:24:09.300Z,99.90
2018-06-02T08:26:36.834Z,99.90
2018-06-02T08:29:04.962Z,99.90
2018-06-02T08:31:32.686Z,99.90
2018-06-02T08:34:01.405Z,99.90
2018-06-02T08:36:28.912Z,99.90
2018-06-02T08:38:56.429Z,99.90
2018-06-02T08:41:23.915Z,99.90
2018-06-02T08:43:52.296Z,99.90
2018-06-02T08:46:19.773Z,99.90
2018-06-02T08:48:47.261Z,99.90
2018-06-02T08:51:14.728Z,99.90
2018-06-02T08:53:42.211Z,99.90
2018-06-02T08:56:09.705Z,99.90
2018-06-02T08:58:37.281Z,99.90
2018-06-02T09:01:05.144Z,99.90
2018-06-02T09:03:33.356Z,99.90
2018-06-02T09:06:00.927Z,99.90
2018-06-02T09:08:28.435Z,99.90
2018-06-02T09:10:56.675Z,96.50
2018-06-02T09:13:24.225Z,96.50
2018-06-02T09:15:52.486Z,94.90
2018-06-02T09:18:20.157Z,95.30
2018-06-02T09:20:48.392Z,96.30
2018-06-02T09:23:16.023Z,96.30
2018-06-02T09:25:43.517Z,92.40
2018-06-02T09:28:10.994Z,96.00
2018-06-02T09:30:38.648Z,96.00
2018-06-02T09:33:06.475Z,96.80
2018-06-02T09:35:34.261Z,92.70
2018-06-02T09:38:02.593Z,96.70
2018-06-02T09:40:30.228Z,96.70
2018-06-02T09:42:57.767Z,98.20
2018-06-02T09:45:26.155Z,96.70
2018-06-02T09:47:53.641Z,96.60
2018-06-02T09:50:21.197Z,95.60
2018-06-02T09:52:48.691Z,96.30
2018-06-02T09:55:16.176Z,96.70
2018-06-02T09:57:43.679Z,96.50
2018-06-02T10:00:11.131Z,97.90
2018-06-02T10:02:38.790Z,97.50
2018-06-02T10:05:06.483Z,96.50
2018-06-02T10:07:34.127Z,93.90
2018-06-02T10:10:02.060Z,96.30
2018-06-02T10:12:30.575Z,97.40
2018-06-02T10:14:58.191Z,97.40
2018-06-02T10:17:25.680Z,97.60
2018-06-02T10:19:53.252Z,94.90
2018-06-02T10:22:20.776Z,93.90
2018-06-02T10:24:48.252Z,87.20
2018-06-02T10:27:15.723Z,82.50
2018-06-02T10:29:43.985Z,83.30
2018-06-02T10:32:12.219Z,79.60
2018-06-02T10:34:39.727Z,79.30
2018-06-02T10:37:07.347Z,81.60
2018-06-02T10:39:35.734Z,93.20
2018-06-02T10:42:03.419Z,93.10
2018-06-02T10:44:32.177Z,92.60
2018-06-02T10:46:59.671Z,82.80
2018-06-02T10:49:27.236Z,81.30
2018-06-02T10:51:55.036Z,81.70
2018-06-02T10:54:22.556Z,83.30
2018-06-02T10:56:50.163Z,79.30
2018-06-02T10:59:17.639Z,79.30
2018-06-02T11:01:45.943Z,84.60
2018-06-02T11:04:14.807Z,87.90
2018-06-02T11:06:44.727Z,91.30
2018-06-02T11:09:12.220Z,91.30
2018-06-02T11:11:39.711Z,91.80
2018-06-02T11:14:07.369Z,89.60
2018-06-02T11:16:35.166Z,78.10
2018-06-02T11:19:02.958Z,74.40
2018-06-02T11:21:31.669Z,78.80
2018-06-02T11:23:59.187Z,78.80
2018-06-02T11:26:26.708Z,74.30
2018-06-02T11:28:54.253Z,78.50
2018-06-02T11:31:21.848Z,81.80
2018-06-02T11:33:49.329Z,88.70
2018-06-02T11:36:16.815Z,85.60
2018-06-02T11:38:44.315Z,81.00
2018-06-02T11:41:11.796Z,84.00
2018-06-02T11:43:39.348Z,77.20
2018-06-02T11:46:07.647Z,69.80
2018-06-02T11:48:36.048Z,70.40
2018-06-02T11:51:03.988Z,70.10
2018-06-02T11:53:32.823Z,67.40
2018-06-02T11:56:01.335Z,62.10
2018-06-02T11:58:28.881Z,62.00
2018-06-02T12:01:01.111Z,60.40
2018-06-02T12:03:28.663Z,61.70
2018-06-02T12:05:56.147Z,60.40
2018-06-02T12:08:23.731Z,60.90
2018-06-02T12:10:51.215Z,58.10
2018-06-02T12:13:18.727Z,56.90
2018-06-02T12:15:46.228Z,57.20
2018-06-02T12:18:13.704Z,57.00
2018-06-02T12:20:41.323Z,56.10
2018-06-02T12:23:08.869Z,60.60
2018-06-02T12:25:38.266Z,72.00
2018-06-02T12:28:06.018Z,72.00
2018-06-02T12:30:33.749Z,65.70
2018-06-02T12:33:01.520Z,59.70
2018-06-02T12:35:29.763Z,59.40
2018-06-02T12:37:57.255Z,59.50
2018-06-02T12:40:31.932Z,56.20
2018-06-02T12:42:59.430Z,47.00
2018-06-02T12:45:27.480Z,52.40
2018-06-02T12:47:55.791Z,53.40
2018-06-02T12:50:23.275Z,53.20
2018-06-02T12:52:50.760Z,51.10
2018-06-02T12:55:18.244Z,57.10
2018-06-02T12:57:45.723Z,59.60
2018-06-02T13:00:13.474Z,55.90
2018-06-02T13:02:40.956Z,56.90
2018-06-02T13:05:08.495Z,52.80
2018-06-02T13:07:36.083Z,53.60
2018-06-02T13:10:03.681Z,56.60
2018-06-02T13:12:31.525Z,55.50
2018-06-02T13:14:59.209Z,56.90
2018-06-02T13:17:26.720Z,60.80
2018-06-02T13:19:54.350Z,61.60
2018-06-02T13:22:21.880Z,60.30
2018-06-02T13:24:49.498Z,62.20
2018-06-02T13:27:16.979Z,64.20
2018-06-02T13:29:44.457Z,60.70
2018-06-02T13:32:11.944Z,57.80
2018-06-02T13:34:39.460Z,54.60
2018-06-02T13:37:06.982Z,51.70
2018-06-02T13:39:35.414Z,48.80
2018-06-02T13:42:03.200Z,48.60
2018-06-02T13:44:31.013Z,47.50
2018-06-02T13:46:59.304Z,49.20
2018-06-02T13:49:26.787Z,49.20
2018-06-02T13:51:54.276Z,50.20
2018-06-02T13:54:21.752Z,43.80
2018-06-02T13:57:01.688Z,46.40
2018-06-02T13:59:29.228Z,48.40
2018-06-02T14:01:56.716Z,47.70
2018-06-02T14:04:24.196Z,50.20
2018-06-02T14:06:51.672Z,53.50
2018-06-02T14:09:19.147Z,58.60
2018-06-02T14:11:46.630Z,62.30
2018-06-02T14:14:14.127Z,63.30
2018-06-02T14:16:41.605Z,63.80
2018-06-02T14:19:10.147Z,61.20
2018-06-02T14:21:37.901Z,67.40
2018-06-02T14:24:06.263Z,65.50
2018-06-02T14:26:34.322Z,65.50
2018-06-02T14:29:02.201Z,64.80
2018-06-02T14:31:31.095Z,71.80
2018-06-02T14:33:58.715Z,71.70
2018-06-02T14:36:26.360Z,66.50
2018-06-02T14:38:53.923Z,69.90
2018-06-02T14:41:21.436Z,68.30
2018-06-02T14:43:54.811Z,65.40
2018-06-02T14:46:23.248Z,66.20
2018-06-02T14:48:51.532Z,70.90
2018-06-02T14:51:19.040Z,70.90
2018-06-02T14:53:46.535Z,67.90
2018-06-02T14:56:14.020Z,65.80
2018-06-02T14:58:41.494Z,63.50
2018-06-02T15:01:09.769Z,67.80
2018-06-02T15:03:37.326Z,67.40
2018-06-02T15:06:05.164Z,65.50
2018-06-02T15:08:32.917Z,65.40
2018-06-02T15:11:00.833Z,63.40
2018-06-02T15:13:28.705Z,63.40
2018-06-02T15:15:56.972Z,65.20
2018-06-02T15:18:24.497Z,65.10
2018-06-02T15:20:53.996Z,67.20
2018-06-02T15:23:21.491Z,65.00
2018-06-02T15:25:49.029Z,67.60
2018-06-02T15:28:24.930Z,66.80
2018-06-02T15:30:52.427Z,66.80
2018-06-02T15:33:19.896Z,67.20
2018-06-02T15:35:48.143Z,71.30
2018-06-02T15:38:16.392Z,68.90
2018-06-02T15:40:43.904Z,68.90
2018-06-02T15:43:11.403Z,69.70
2018-06-02T15:45:38.939Z,70.10
2018-06-02T15:48:06.619Z,70.30
2018-06-02T15:50:34.358Z,69.60
2018-06-02T15:53:02.118Z,68.00
2018-06-02T15:55:29.855Z,70.20
2018-06-02T15:57:57.406Z,71.80
2018-06-02T16:00:24.879Z,69.70
2018-06-02T16:02:53.160Z,70.80
2018-06-02T16:05:20.640Z,70.80
2018-06-02T16:07:48.912Z,70.10
2018-06-02T16:10:16.391Z,70.00
2018-06-02T16:12:43.907Z,71.00
2018-06-02T16:15:11.503Z,71.60
2018-06-02T16:17:39.163Z,71.80
2018-06-02T16:20:07.536Z,72.10
2018-06-02T16:22:35.525Z,72.10
2018-06-02T16:25:03.063Z,72.40
2018-06-02T16:27:30.750Z,72.60
2018-06-02T16:29:59.054Z,71.20
2018-06-02T16:32:26.536Z,71.20
2018-06-02T16:34:54.079Z,69.80
2018-06-02T16:37:21.577Z,71.80
2018-06-02T16:39:49.075Z,73.60
2018-06-02T16:42:16.548Z,72.20
2018-06-02T16:44:44.019Z,73.70
2018-06-02T16:47:24.668Z,72.60
2018-06-02T16:49:52.167Z,72.30
2018-06-02T16:52:19.656Z,74.10
2018-06-02T16:54:47.908Z,75.80
2018-06-02T16:57:15.844Z,75.70
2018-06-02T16:59:44.116Z,77.50
2018-06-02T17:02:11.604Z,77.40
2018-06-02T17:04:39.849Z,74.30
2018-06-02T17:07:07.373Z,74.30
2018-06-02T17:09:35.956Z,75.90
2018-06-02T17:12:04.252Z,76.80
2018-06-02T17:14:31.869Z,76.90
2018-06-02T17:17:02.716Z,75.50
2018-06-02T17:19:30.243Z,77.30
2018-06-02T17:21:58.563Z,76.90
2018-06-02T17:24:26.043Z,76.80
2018-06-02T17:26:53.685Z,77.40
2018-06-02T17:29:23.249Z,78.30
2018-06-02T17:31:51.499Z,79.40
2018-06-02T17:34:18.983Z,79.30
2018-06-02T17:36:46.464Z,79.90
2018-06-02T17:39:13.957Z,81.20
2018-06-02T17:41:41.572Z,81.00
2018-06-02T17:44:09.832Z,84.90
2018-06-02T17:46:37.431Z,84.80
2018-06-02T17:49:05.075Z,85.10
2018-06-02T17:51:32.891Z,84.80
2018-06-02T17:54:00.778Z,85.80
2018-06-02T17:56:28.358Z,86.80
2018-06-02T17:58:55.832Z,87.00
2018-06-02T18:01:23.335Z,88.10
2018-06-02T18:03:50.820Z,87.60
2018-06-02T18:06:18.392Z,88.00
2018-06-02T18:08:46.644Z,89.60
2018-06-02T18:11:14.878Z,90.60
2018-06-02T18:13:42.364Z,90.60
2018-06-02T18:16:09.904Z,91.40
2018-06-02T18:18:37.439Z,91.30
2018-06-02T18:21:05.003Z,91.80
2018-06-02T18:23:32.604Z,91.50
2018-06-02T18:26:00.388Z,91.50
2018-06-02T18:28:32.714Z,92.30
2018-06-02T18:31:00.856Z,92.30
2018-06-02T18:33:28.339Z,91.20
2018-06-02T18:35:55.840Z,92.50
2018-06-02T18:38:23.323Z,92.80
2018-06-02T18:41:01.837Z,92.70
2018-06-02T18:43:29.452Z,93.60
2018-06-02T18:45:56.920Z,94.20
2018-06-02T18:48:24.412Z,94.80
2018-06-02T18:50:51.888Z,95.40
2018-06-02T18:53:19.367Z,96.40
2018-06-02T18:55:46.851Z,96.50
2018-06-02T18:58:14.372Z,97.60
2018-06-02T19:00:41.897Z,98.30
2018-06-02T19:03:10.151Z,99.20
2018-06-02T19:05:37.684Z,99.20
2018-06-02T19:08:05.404Z,99.90
2018-06-02T19:10:33.132Z,99.90
2018-06-02T19:13:00.849Z,99.90
2018-06-02T19:15:28.398Z,99.90
2018-06-02T19:17:56.034Z,99.90
2018-06-02T19:20:25.604Z,99.90
2018-06-02T19:22:53.339Z,99.90
2018-06-02T19:25:20.890Z,99.90
2018-06-02T19:27:51.807Z,99.90
2018-06-02T19:30:20.055Z,99.90
2018-06-02T19:32:47.543Z,99.90
2018-06-02T19:35:19.005Z,99.90
2018-06-02T19:37:46.624Z,99.90
2018-06-02T19:40:15.091Z,99.90
2018-06-02T19:42:42.598Z,99.90
2018-06-02T19:45:10.899Z,99.90
2018-06-02T19:47:38.440Z,99.90
2018-06-02T19:50:06.227Z,99.90
2018-06-02T19:52:33.850Z,99.90
2018-06-02T19:55:02.375Z,99.90
2018-06-02T19:57:29.885Z,99.90
2018-06-02T19:59:57.423Z,99.90
2018-06-02T20:02:24.912Z,99.90
2018-06-02T20:04:52.392Z,99.90
2018-06-02T20:07:19.867Z,99.90
2018-06-02T20:09:47.375Z,99.90
2018-06-02T20:12:32.572Z,99.90
2018-06-02T20:15:00.147Z,99.90
2018-06-02T20:17:27.653Z,99.90
2018-06-02T20:19:55.132Z,99.90
2018-06-02T20:22:22.736Z,99.90
2018-06-02T20:24:50.215Z,99.90
2018-06-02T20:27:17.692Z,99.90
2018-06-02T20:29:45.268Z,99.90
2018-06-02T20:32:12.751Z,99.90
2018-06-02T20:34:41.053Z,99.90
2018-06-02T20:37:08.565Z,99.90
2018-06-02T20:39:36.203Z,99.90
2018-06-02T20:42:03.895Z,99.90
2018-06-02T20:44:31.603Z,99.90
2018-06-02T20:46:59.911Z,99.90
2018-06-02T20:49:27.432Z,99.90
2018-06-02T20:51:54.911Z,99.90
2018-06-02T20:54:22.395Z,99.90
2018-06-02T20:56:49.910Z,99.90
2018-06-02T20:59:17.432Z,99.90
2018-06-02T21:01:45.683Z,99.90
2018-06-02T21:04:13.308Z,99.90
2018-06-02T21:06:40.795Z,99.90
2018-06-02T21:09:08.919Z,99.90
2018-06-02T21:11:37.590Z,99.90
2018-06-02T21:14:05.321Z,99.90
2018-06-02T21:16:32.948Z,99.90
2018-06-02T21:19:01.400Z,99.90
2018-06-02T21:21:28.895Z,99.90
2018-06-02T21:23:56.379Z,99.90
2018-06-02T21:26:25.802Z,99.90
2018-06-02T21:28:54.214Z,99.90
2018-06-02T21:31:21.708Z,99.90
2018-06-02T21:33:49.231Z,99.90
2018-06-02T21:36:17.433Z,99.90
2018-06-02T21:38:44.916Z,99.90
2018-06-02T21:41:12.400Z,99.90
2018-06-02T21:43:39.939Z,99.90
2018-06-02T21:46:07.449Z,99.90
2018-06-02T21:48:35.742Z,99.90
2018-06-02T21:51:03.467Z,99.90
2018-06-02T21:53:31.168Z,99.90
2018-06-02T21:55:58.720Z,99.90
2018-06-02T21:58:32.697Z,99.90
2018-06-02T22:01:00.304Z,99.90
2018-06-02T22:03:27.791Z,99.90
2018-06-02T22:05:55.305Z,99.90
2018-06-02T22:08:26.528Z,99.90
2018-06-02T22:10:54.030Z,99.90
2018-06-02T22:13:22.271Z,99.90
2018-06-02T22:15:49.768Z,99.90
2018-06-02T22:18:17.248Z,99.90
2018-06-02T22:20:44.725Z,99.90
2018-06-02T22:23:12.203Z,99.90
2018-06-02T22:25:39.691Z,99.90
2018-06-02T22:28:07.192Z,99.90
2018-06-02T22:30:34.747Z,99.90
2018-06-02T22:33:03.145Z,99.90
2018-06-02T22:35:31.296Z,99.90
2018-06-02T22:37:58.856Z,99.90
2018-06-02T22:40:26.387Z,99.90
2018-06-02T22:42:53.895Z,99.90
2018-06-02T22:45:21.404Z,99.90
2018-06-02T22:47:49.016Z,99.90
2018-06-02T22:50:16.495Z,99.90
2018-06-02T22:52:43.976Z,99.90
2018-06-02T22:55:12.223Z,99.90
2018-06-02T22:57:39.696Z,99.90
2018-06-02T23:00:07.265Z,99.90
2018-06-02T23:02:34.894Z,99.90
2018-06-02T23:05:03.467Z,99.90
2018-06-02T23:07:31.941Z,99.90
2018-06-02T23:10:00.194Z,99.90
2018-06-02T23:12:28.508Z,99.90
2018-06-02T23:14:56.011Z,99.90
2018-06-02T23:17:23.507Z,99.90
2018-06-02T23:19:50.994Z,99.90
2018-06-02T23:22:28.879Z,99.90
2018-06-02T23:24:56.360Z,99.90
2018-06-02T23:27:23.860Z,99.90
2018-06-02T23:29:51.547Z,99.90
2018-06-02T23:32:19.056Z,99.90
2018-06-02T23:34:46.524Z,99.90
2018-06-02T23:37:14.059Z,99.90
2018-06-02T23:39:41.499Z,99.90
2018-06-02T23:42:09.107Z,99.90
2018-06-02T23:44:36.812Z,99.90
2018-06-02T23:47:04.478Z,99.90
2018-06-02T23:49:32.207Z,99.90
2018-06-02T23:52:01.015Z,99.90
2018-06-02T23:54:28.500Z,99.90
2018-06-02T23:56:55.980Z,99.90
2018-06-02T23:59:23.468Z,99.90
